Aviation Digital Data Service (ADDS)

Output produced by TAFs form (2133 UTC 30 January 2015)
found at http://aviationweather.gov/adds/tafs/
 
KLVS 301831Z 3019/3118 16010KT 1SM -SN BR SCT009 OVC020 
     TEMPO 3019/3022 1/2SM SN FZFG OVC009 
     FM310500 18010KT 1SM -SN BR OVC015 
     FM311100 19009KT 5SM -SN OVC030